Terminal Aerodrome Forecast
Issued by NWS Tampa Bay Area, FL

Home | Current Version | Previous Version | Text Only | Print | Product List | Glossary Off
Versions: 1 2 3 4 5 6 7 8 9 10 11 12

000
FTUS42 KTBW 251100
TAFSRQ
TAF
KSRQ 251126Z 2512/2612 36004KT P6SM SKC
     FM251500 02008KT P6SM SKC
     FM251800 35010KT P6SM SKC
     FM260100 03004KT P6SM SKC=

USA.gov is the U.S. government's official web portal to all federal, state and local government web resources and services.